Time;durP1;ratioP1;P1;durP2;ratioP2;P2;SDS_P1;SDS_P2;PMS_P1;PMS_P2;Temp;Humidity;BMP_temperature;BMP_pressure;BME280_temperature;BME280_humidity;BME280_pressure;Samples;Min_cycle;Max_cycle;Signal;HPM_P1;HPM_P2
2024/03/01 00:00:10;;;;;;;96.43;29.80;;;6.50;65.00;;;1.65;100.00;94506.59;5022616;28;20384;-51
2024/03/01 00:02:36;;;;;;;110.75;31.40;;;6.50;65.10;;;1.67;100.00;94504.53;5023804;28;20038;-53
2024/03/01 00:05:02;;;;;;;108.25;29.20;;;6.50;65.10;;;1.66;100.00;94502.97;5018374;28;20024;-51
2024/03/01 00:07:28;;;;;;;90.07;27.15;;;6.50;65.10;;;1.65;100.00;94498.72;5023377;28;20028;-51
2024/03/01 00:09:54;;;;;;;110.88;29.83;;;6.60;65.10;;;1.60;100.00;94494.19;5022515;28;20094;-52
2024/03/01 00:12:20;;;;;;;101.40;29.60;;;6.60;65.00;;;1.56;100.00;94503.53;5012077;28;20017;-53
2024/03/01 00:14:45;;;;;;;102.72;29.55;;;6.50;64.90;;;1.52;100.00;94505.06;5020758;28;20464;-53
2024/03/01 00:17:11;;;;;;;112.00;30.67;;;6.60;65.00;;;1.50;100.00;94514.97;5019192;28;20496;-52
2024/03/01 00:19:37;;;;;;;108.78;28.58;;;6.50;65.00;;;1.44;100.00;94510.66;5019286;28;20098;-53
2024/03/01 00:22:03;;;;;;;108.45;29.60;;;6.50;65.00;;;1.48;100.00;94506.56;5022976;28;20068;-53
2024/03/01 00:24:28;;;;;;;108.25;29.95;;;6.50;65.10;;;1.51;100.00;94508.72;5022780;28;20051;-54
2024/03/01 00:26:54;;;;;;;88.43;29.02;;;6.40;65.10;;;1.55;100.00;94498.53;5026762;28;20120;-51
2024/03/01 00:29:20;;;;;;;86.13;26.77;;;6.50;65.20;;;1.54;100.00;94500.38;5007646;28;20032;-50
2024/03/01 00:31:46;;;;;;;97.47;27.58;;;6.40;65.10;;;1.51;100.00;94518.41;5025515;28;20527;-53
2024/03/01 00:34:11;;;;;;;96.05;26.63;;;6.40;65.10;;;1.35;100.00;94514.72;5014415;28;20021;-53
2024/03/01 00:36:37;;;;;;;96.40;27.45;;;6.40;65.00;;;1.27;100.00;94510.59;5013619;28;20028;-51
2024/03/01 00:39:03;;;;;;;91.18;26.80;;;6.30;64.90;;;1.27;100.00;94520.31;5025249;28;20025;-51
2024/03/01 00:41:29;;;;;;;98.68;26.50;;;6.30;65.00;;;1.29;100.00;94507.75;5018061;28;20468;-50
2024/03/01 00:43:58;;;;;;;91.45;25.83;;;6.30;65.10;;;1.24;100.00;94524.19;5018077;28;20025;-51
2024/03/01 00:46:24;;;;;;;89.22;25.02;;;6.20;65.00;;;1.18;100.00;94522.50;5025841;28;20025;-50
2024/03/01 00:48:53;;;;;;;91.32;27.27;;;6.20;64.90;;;1.12;100.00;94528.66;5020677;28;20388;-53
2024/03/01 00:51:20;;;;;;;97.03;26.35;;;6.10;64.90;;;1.05;100.00;94526.16;5016159;28;20128;-54
2024/03/01 00:53:46;;;;;;;83.80;25.20;;;6.10;65.00;;;0.99;100.00;94528.91;5010370;28;20025;-50
2024/03/01 00:56:12;;;;;;;85.28;25.27;;;6.00;65.00;;;0.98;100.00;94530.75;5022552;28;20033;-50
2024/03/01 00:58:38;;;;;;;106.22;28.70;;;6.00;65.10;;;0.97;100.00;94526.50;5018650;28;20012;-53
2024/03/01 01:01:04;;;;;;;84.78;27.13;;;6.00;65.10;;;1.00;100.00;94525.25;5025935;28;20066;-53
2024/03/01 01:03:30;;;;;;;91.55;27.50;;;5.90;65.20;;;1.01;100.00;94519.00;5022211;28;20372;-51
2024/03/01 01:05:56;;;;;;;81.75;25.48;;;5.90;65.30;;;0.97;100.00;94523.88;5020061;28;20061;-50
2024/03/01 01:08:24;;;;;;;93.60;25.83;;;5.90;65.30;;;0.98;100.00;94522.09;5018881;28;20621;-52
2024/03/01 01:10:50;;;;;;;94.22;25.92;;;5.90;65.30;;;0.92;100.00;94513.31;5010033;28;20570;-52
2024/03/01 01:13:16;;;;;;;91.18;25.92;;;5.90;65.40;;;0.90;100.00;94516.13;5012349;28;20111;-51
2024/03/01 01:15:41;;;;;;;97.65;26.58;;;5.90;65.40;;;0.87;100.00;94518.44;5022114;28;20376;-50
2024/03/01 01:18:09;;;;;;;101.35;27.23;;;5.90;65.50;;;0.89;100.00;94516.38;5015699;28;20029;-51
2024/03/01 01:20:35;;;;;;;90.40;25.50;;;5.90;65.50;;;0.86;100.00;94528.13;5020631;28;20028;-50
2024/03/01 01:23:01;;;;;;;113.35;28.15;;;5.90;65.50;;;0.91;100.00;94522.22;5018339;28;20296;-54
2024/03/01 01:25:27;;;;;;;102.68;27.88;;;5.90;65.60;;;0.93;100.00;94525.38;5019367;28;20431;-52
2024/03/01 01:27:54;;;;;;;106.43;27.40;;;6.00;65.70;;;0.98;100.00;94517.63;5018551;28;20033;-52
2024/03/01 01:30:19;;;;;;;104.38;28.23;;;6.00;66.00;;;1.03;100.00;94525.59;5016609;28;20058;-50
2024/03/01 01:32:45;;;;;;;100.20;29.13;;;6.00;65.80;;;1.09;100.00;94529.91;5018028;28;20446;-52
2024/03/01 01:35:11;;;;;;;107.70;30.27;;;6.10;66.00;;;1.17;100.00;94525.34;5016112;28;20074;-52
2024/03/01 01:37:37;;;;;;;102.75;31.50;;;6.10;66.00;;;1.25;100.00;94538.88;5021915;28;20064;-51
2024/03/01 01:40:04;;;;;;;102.72;28.33;;;6.20;66.30;;;1.29;100.00;94542.66;5023134;28;20391;-51
2024/03/01 01:42:30;;;;;;;99.90;26.75;;;6.30;66.40;;;1.33;100.00;94538.53;5015023;28;20391;-51
2024/03/01 01:44:56;;;;;;;104.82;27.65;;;6.40;66.30;;;1.39;100.00;94523.69;5019251;28;20109;-52
2024/03/01 01:47:23;;;;;;;89.93;26.15;;;6.40;66.20;;;1.43;100.00;94524.81;5011056;28;20085;-51
2024/03/01 01:49:50;;;;;;;100.40;28.90;;;6.40;66.30;;;1.46;100.00;94513.84;5020876;28;20029;-52
2024/03/01 01:52:16;;;;;;;103.63;29.13;;;6.50;66.30;;;1.56;100.00;94519.28;5019978;28;20020;-53
2024/03/01 01:54:43;;;;;;;114.85;30.83;;;6.60;66.30;;;1.62;100.00;94523.59;5015414;28;20119;-52
2024/03/01 01:57:11;;;;;;;123.82;31.23;;;6.60;66.30;;;1.68;100.00;94527.13;4985287;28;20042;-50
2024/03/01 01:59:37;;;;;;;127.60;32.88;;;6.70;66.50;;;1.76;100.00;94537.28;5000937;28;20024;-50
2024/03/01 02:02:05;;;;;;;140.43;34.47;;;6.70;66.50;;;1.83;100.00;94537.13;4999708;28;20029;-51
2024/03/01 02:04:31;;;;;;;120.53;34.25;;;6.80;66.70;;;1.93;100.00;94539.94;5001376;28;20361;-52
2024/03/01 02:06:57;;;;;;;128.82;33.92;;;6.80;66.70;;;2.01;100.00;94549.28;4998924;28;20109;-52
2024/03/01 02:09:23;;;;;;;139.05;34.65;;;6.90;66.80;;;2.07;100.00;94543.06;5004881;28;20092;-53
2024/03/01 02:11:49;;;;;;;119.68;33.40;;;6.90;66.80;;;2.15;100.00;94555.00;4980167;28;20041;-52
2024/03/01 02:14:15;;;;;;;122.53;31.75;;;7.00;67.00;;;2.21;100.00;94559.31;5002583;28;20029;-54
2024/03/01 02:16:40;;;;;;;125.20;32.78;;;7.00;67.00;;;2.25;100.00;94555.97;4990729;28;20041;-53
2024/03/01 02:19:17;;;;;;;119.53;31.35;;;7.10;67.10;;;2.30;100.00;94555.28;4999018;28;20017;-50
2024/03/01 02:22:18;;;;;;;111.78;32.17;;;7.20;67.10;;;2.35;100.00;94555.38;4986811;28;20029;-51
2024/03/01 02:24:44;;;;;;;118.13;32.63;;;7.20;67.00;;;2.39;100.00;94548.59;4981564;28;20497;-54
2024/03/01 02:27:10;;;;;;;124.10;32.72;;;7.30;66.90;;;2.43;100.00;94546.28;5006264;28;20033;-54
2024/03/01 02:29:36;;;;;;;121.93;34.30;;;7.30;66.90;;;2.47;100.00;94550.03;5001854;28;20017;-50
2024/03/01 02:32:02;;;;;;;113.68;32.17;;;7.40;66.90;;;2.50;100.00;94549.53;5009441;28;20116;-50
2024/03/01 02:34:28;;;;;;;126.10;32.75;;;7.40;67.00;;;2.55;100.00;94547.81;5001728;28;20030;-50
2024/03/01 02:36:53;;;;;;;122.40;32.40;;;7.50;67.00;;;2.62;100.00;94537.13;5004401;28;20108;-55
2024/03/01 02:39:19;;;;;;;125.25;34.67;;;7.50;67.10;;;2.70;100.00;94536.72;5003710;28;20501;-51
2024/03/01 02:41:48;;;;;;;130.73;35.47;;;7.60;67.30;;;2.73;100.00;94538.88;4994820;28;20044;-55
2024/03/01 02:44:14;;;;;;;108.43;33.47;;;7.60;67.30;;;2.80;100.00;94530.81;5005201;28;20037;-50
2024/03/01 02:46:40;;;;;;;128.10;36.45;;;7.60;67.20;;;2.82;100.00;94528.75;5000730;28;20378;-55
2024/03/01 02:49:06;;;;;;;123.65;33.22;;;7.70;67.30;;;2.89;100.00;94525.94;5007324;28;20025;-53
2024/03/01 02:51:32;;;;;;;116.03;33.33;;;7.70;67.30;;;2.94;100.00;94534.69;5011424;28;20028;-52
2024/03/01 02:53:58;;;;;;;126.28;36.72;;;7.80;67.40;;;2.98;100.00;94538.44;4990420;28;20028;-52
2024/03/01 02:56:24;;;;;;;109.18;32.60;;;7.90;67.40;;;3.03;100.00;94532.44;5009594;28;20045;-52
2024/03/01 02:58:50;;;;;;;115.53;34.63;;;7.90;67.40;;;3.08;100.00;94535.16;5025648;28;20036;-50
2024/03/01 03:01:16;;;;;;;112.43;33.00;;;8.00;67.30;;;3.12;100.00;94540.72;5028644;28;20029;-51
2024/03/01 03:03:42;;;;;;;120.78;34.90;;;8.00;67.30;;;3.13;100.00;94535.19;5028936;28;20118;-50
2024/03/01 03:06:08;;;;;;;114.68;33.00;;;8.10;67.30;;;3.17;100.00;94533.69;5023395;28;20029;-50
2024/03/01 03:08:34;;;;;;;123.05;34.97;;;8.10;67.30;;;3.19;100.00;94528.16;5026480;28;20017;-50
2024/03/01 03:11:00;;;;;;;124.35;34.25;;;8.10;67.20;;;3.20;100.00;94530.56;5019926;28;20475;-51
2024/03/01 03:13:26;;;;;;;115.88;33.80;;;8.20;67.30;;;3.20;100.00;94529.78;5018875;28;20032;-55
2024/03/01 03:15:51;;;;;;;120.60;34.80;;;8.20;67.30;;;3.23;100.00;94531.94;5026367;28;20029;-53
2024/03/01 03:18:17;;;;;;;126.70;35.65;;;8.20;67.30;;;3.25;100.00;94532.47;5022624;28;20036;-54
2024/03/01 03:20:43;;;;;;;134.57;35.53;;;8.30;67.40;;;3.29;100.00;94528.31;5026422;28;20052;-52
2024/03/01 03:23:09;;;;;;;127.18;35.83;;;8.30;67.30;;;3.32;100.00;94535.72;5021999;28;20500;-51
2024/03/01 03:25:36;;;;;;;124.78;37.45;;;8.30;67.40;;;3.35;100.00;94537.06;5024841;28;20119;-54
2024/03/01 03:28:03;;;;;;;120.32;33.78;;;8.30;67.30;;;3.40;100.00;94539.75;5019625;28;20487;-52
2024/03/01 03:30:29;;;;;;;120.35;36.25;;;8.40;67.50;;;3.43;100.00;94542.69;5026343;28;20032;-51
2024/03/01 03:32:55;;;;;;;120.35;35.17;;;8.40;67.50;;;3.46;100.00;94542.22;5024228;28;20472;-54
2024/03/01 03:35:20;;;;;;;125.07;35.55;;;8.40;67.50;;;3.49;100.00;94543.56;5015351;28;20060;-52
2024/03/01 03:37:47;;;;;;;120.97;34.50;;;8.50;67.50;;;3.48;100.00;94540.13;5022386;28;20082;-50
2024/03/01 03:40:16;;;;;;;124.05;37.03;;;8.50;67.50;;;3.51;100.00;94546.75;5022017;28;20025;-51
2024/03/01 03:42:44;;;;;;;118.78;35.60;;;8.50;67.40;;;3.52;100.00;94540.44;5015209;28;20051;-51
2024/03/01 03:45:11;;;;;;;126.45;37.45;;;8.50;67.50;;;3.52;100.00;94542.28;5021801;28;20025;-50
2024/03/01 03:47:38;;;;;;;116.68;35.97;;;8.60;67.60;;;3.62;100.00;94547.66;5018542;28;20024;-50
2024/03/01 03:50:08;;;;;;;103.97;36.17;;;8.60;67.60;;;3.67;100.00;94548.53;5024628;28;20427;-51
2024/03/01 03:52:35;;;;;;;115.28;36.13;;;8.60;67.60;;;3.74;100.00;94552.81;5007461;28;20044;-50
2024/03/01 03:55:06;;;;;;;111.57;35.05;;;8.70;67.70;;;3.77;100.00;94547.84;5016614;28;20024;-55
2024/03/01 03:57:34;;;;;;;119.50;34.63;;;8.70;67.70;;;3.80;100.00;94544.72;5013767;28;20503;-52
2024/03/01 04:00:02;;;;;;;123.55;37.10;;;8.80;67.70;;;3.84;100.00;94547.63;4987658;28;20121;-52
2024/03/01 04:02:29;;;;;;;110.97;36.70;;;8.80;67.70;;;3.84;100.00;94551.06;5024647;28;20052;-54
2024/03/01 04:04:54;;;;;;;111.72;36.13;;;8.80;67.60;;;3.87;100.00;94553.22;5010568;28;20026;-50
2024/03/01 04:07:20;;;;;;;104.55;34.00;;;8.90;67.60;;;3.90;100.00;94550.09;5024642;28;20152;-52
2024/03/01 04:09:46;;;;;;;110.00;34.05;;;8.90;67.60;;;3.91;100.00;94553.50;5021054;28;20055;-53
2024/03/01 04:12:12;;;;;;;103.50;33.75;;;8.90;67.50;;;3.94;100.00;94560.91;5016866;28;20039;-54
2024/03/01 04:14:37;;;;;;;119.97;34.58;;;9.00;67.50;;;3.95;100.00;94554.63;5024234;28;20025;-50
2024/03/01 04:17:04;;;;;;;116.45;35.53;;;9.00;67.50;;;3.94;100.00;94556.44;5012072;28;20048;-50
2024/03/01 04:19:31;;;;;;;117.82;36.80;;;9.00;67.40;;;3.96;100.00;94564.09;5022430;28;20499;-52
2024/03/01 04:21:57;;;;;;;117.55;36.95;;;9.00;67.40;;;3.96;100.00;94563.31;5015875;28;20030;-51
2024/03/01 04:24:22;;;;;;;107.22;35.05;;;9.00;67.40;;;4.00;100.00;94561.78;5017171;28;20036;-52
2024/03/01 04:26:48;;;;;;;112.43;35.22;;;9.00;67.50;;;4.00;100.00;94562.56;5021931;28;20021;-51
2024/03/01 04:29:14;;;;;;;108.63;36.17;;;9.00;67.50;;;4.05;100.00;94561.84;5013625;28;20111;-50
2024/03/01 04:31:43;;;;;;;109.00;37.88;;;9.00;67.60;;;4.07;100.00;94562.38;5018613;28;20028;-53
2024/03/01 04:34:09;;;;;;;109.90;37.95;;;9.10;67.80;;;4.14;100.00;94568.25;5017319;28;20104;-52
2024/03/01 04:36:36;;;;;;;105.38;36.75;;;9.10;67.80;;;4.15;100.00;94568.00;4999231;28;20112;-51
2024/03/01 04:39:03;;;;;;;120.32;37.97;;;9.10;67.80;;;4.15;100.00;94570.63;5008255;28;20025;-51
2024/03/01 04:41:30;;;;;;;114.88;37.05;;;9.10;67.80;;;4.17;100.00;94579.09;5022929;28;20052;-51
2024/03/01 04:43:55;;;;;;;112.90;36.40;;;9.20;67.90;;;4.21;100.00;94579.38;5019724;28;20082;-51
2024/03/01 04:46:21;;;;;;;118.25;35.67;;;9.20;68.00;;;4.21;100.00;94574.13;5013606;28;20032;-53
2024/03/01 04:48:47;;;;;;;112.05;36.15;;;9.20;67.90;;;4.21;100.00;94579.38;5019627;28;20426;-55
2024/03/01 04:51:13;;;;;;;105.88;36.50;;;9.20;67.90;;;4.27;100.00;94573.13;5019731;28;20072;-55
2024/03/01 04:53:40;;;;;;;109.97;39.08;;;9.20;68.00;;;4.29;100.00;94581.56;5010808;28;20036;-53
2024/03/01 04:56:10;;;;;;;101.75;36.75;;;9.20;68.00;;;4.33;100.00;94587.94;5025512;28;20033;-50
2024/03/01 04:58:36;;;;;;;105.25;35.83;;;9.30;68.30;;;4.37;100.00;94585.59;5013392;28;20041;-54
2024/03/01 05:01:02;;;;;;;110.60;37.80;;;9.30;68.10;;;4.33;100.00;94584.53;5021367;28;20055;-50
2024/03/01 05:03:28;;;;;;;116.40;38.47;;;9.30;68.10;;;4.35;100.00;94595.59;5021593;28;20056;-53
2024/03/01 05:05:59;;;;;;;123.80;41.15;;;9.30;68.10;;;4.39;100.00;94589.59;5021745;28;20074;-56
2024/03/01 05:08:27;;;;;;;129.10;40.95;;;9.30;68.20;;;4.37;100.00;94589.03;5018060;28;20391;-51
2024/03/01 05:10:53;;;;;;;109.57;37.65;;;9.30;68.30;;;4.40;100.00;94601.72;5010140;28;20393;-56
2024/03/01 05:13:21;;;;;;;114.55;36.95;;;9.30;68.40;;;4.45;100.00;94593.06;5014576;28;20037;-52
2024/03/01 05:15:48;;;;;;;117.22;35.85;;;9.30;68.50;;;4.49;100.00;94601.28;5020691;28;20115;-56
2024/03/01 05:18:14;;;;;;;119.65;39.78;;;9.30;68.50;;;4.53;100.00;94597.09;5015307;28;20024;-52
2024/03/01 05:20:42;;;;;;;125.47;40.13;;;9.30;68.50;;;4.55;100.00;94598.44;5020582;28;20107;-52
2024/03/01 05:23:07;;;;;;;135.95;39.30;;;9.40;68.50;;;4.59;100.00;94601.34;5020166;28;20036;-55
2024/03/01 05:25:33;;;;;;;117.30;39.22;;;9.30;68.50;;;4.58;100.00;94605.06;5017670;28;20021;-53
2024/03/01 05:27:59;;;;;;;120.03;38.67;;;9.40;68.60;;;4.60;100.00;94602.94;4992661;28;20029;-51
2024/03/01 05:30:26;;;;;;;122.75;37.78;;;9.40;68.60;;;4.60;100.00;94606.38;5020643;28;20037;-50
2024/03/01 05:32:53;;;;;;;120.80;40.00;;;9.40;68.60;;;4.64;100.00;94599.56;5018289;28;20498;-55
2024/03/01 05:35:21;;;;;;;123.97;38.72;;;9.40;68.70;;;4.69;100.00;94606.72;5002493;28;20108;-51
2024/03/01 05:37:47;;;;;;;115.28;35.85;;;9.50;68.80;;;4.70;100.00;94605.69;5011087;28;20104;-48
2024/03/01 05:40:15;;;;;;;119.70;36.35;;;9.50;68.70;;;4.71;100.00;94609.91;5016312;28;20824;-52
2024/03/01 05:42:43;;;;;;;111.60;36.55;;;9.50;68.70;;;4.72;100.00;94608.84;5011875;28;20115;-49
2024/03/01 05:45:11;;;;;;;105.60;35.55;;;9.50;68.70;;;4.71;100.00;94620.47;5016697;28;20025;-49
2024/03/01 05:47:44;;;;;;;107.57;34.92;;;9.60;68.70;;;4.76;100.00;94617.84;5020121;28;20033;-49
2024/03/01 05:50:13;;;;;;;110.95;35.58;;;9.60;68.70;;;4.77;100.00;94622.09;5015825;28;20112;-50
2024/03/01 05:52:43;;;;;;;114.68;37.40;;;9.60;68.70;;;4.80;100.00;94628.72;5019087;28;20044;-49
2024/03/01 05:55:12;;;;;;;109.47;36.38;;;9.60;68.70;;;4.83;100.00;94620.31;5021815;28;20021;-49
2024/03/01 06:00:19;;;;;;;120.25;36.83;;;9.60;68.70;;;4.84;100.00;94629.81;5005992;28;20842;-51
2024/03/01 06:02:47;;;;;;;119.82;37.40;;;9.70;68.70;;;4.84;100.00;94627.94;5008940;28;20036;-50
2024/03/01 06:05:14;;;;;;;122.60;38.03;;;9.70;68.70;;;4.85;100.00;94629.53;5003881;28;20040;-51
2024/03/01 06:07:41;;;;;;;115.32;37.20;;;9.70;68.70;;;4.87;100.00;94631.94;5007670;28;20031;-51
2024/03/01 06:10:08;;;;;;;110.95;36.35;;;9.70;68.80;;;4.88;100.00;94642.22;4972740;28;20491;-52
2024/03/01 06:12:34;;;;;;;121.65;38.05;;;9.70;68.80;;;4.90;100.00;94639.34;4989452;28;20037;-52
2024/03/01 06:15:00;;;;;;;112.82;37.65;;;9.70;68.80;;;4.92;100.00;94641.72;4990231;28;20144;-55
2024/03/01 06:17:26;;;;;;;119.88;37.30;;;9.70;68.90;;;4.95;100.00;94644.69;4988753;28;20025;-53
2024/03/01 06:19:53;;;;;;;120.97;39.22;;;9.70;68.90;;;4.97;100.00;94650.50;4989517;28;20026;-52
2024/03/01 06:22:19;;;;;;;123.95;37.25;;;9.70;69.00;;;4.99;100.00;94650.25;4989078;28;20058;-49
2024/03/01 06:24:45;;;;;;;198.70;38.05;;;9.70;69.00;;;5.00;100.00;94659.75;4987095;28;20049;-54
2024/03/01 06:27:11;;;;;;;125.85;36.15;;;9.70;69.10;;;5.00;100.00;94663.19;4989737;28;20109;-53
2024/03/01 06:29:38;;;;;;;118.63;37.05;;;9.80;69.10;;;5.02;100.00;94663.75;4988773;28;20025;-52
2024/03/01 06:32:05;;;;;;;118.88;37.80;;;9.80;69.10;;;5.02;100.00;94673.50;4989666;28;20396;-50
2024/03/01 06:34:31;;;;;;;130.50;36.95;;;9.80;69.10;;;5.03;100.00;94678.53;4989450;28;20023;-52
2024/03/01 06:36:57;;;;;;;118.22;35.20;;;9.80;69.00;;;5.03;100.00;94669.81;4989852;28;20511;-49
2024/03/01 06:39:23;;;;;;;111.15;34.00;;;9.80;69.00;;;4.99;100.00;94680.06;4989005;28;20045;-50
2024/03/01 06:41:48;;;;;;;222.40;38.42;;;9.80;69.00;;;5.03;100.00;94683.00;4989044;28;20459;-48
2024/03/01 06:44:14;;;;;;;157.80;36.10;;;9.80;68.90;;;5.04;100.00;94677.47;4989759;28;20036;-49
2024/03/01 06:46:40;;;;;;;131.77;35.88;;;9.90;69.00;;;5.05;100.00;94676.44;4988734;28;20013;-51
2024/03/01 06:49:08;;;;;;;149.05;35.75;;;9.90;69.00;;;5.06;100.00;94685.94;4989194;28;20029;-51
2024/03/01 06:51:34;;;;;;;125.43;33.95;;;9.90;68.90;;;5.06;100.00;94690.44;4989657;28;20018;-48
2024/03/01 06:53:59;;;;;;;209.55;36.67;;;9.90;68.90;;;5.05;100.00;94683.56;4988721;28;20048;-49
2024/03/01 06:56:25;;;;;;;215.40;37.42;;;9.90;68.90;;;5.07;100.00;94692.81;4989936;28;20028;-49
2024/03/01 06:58:51;;;;;;;121.10;33.30;;;9.90;68.90;;;5.08;100.00;94688.34;4988105;28;20046;-50
2024/03/01 07:01:17;;;;;;;126.35;33.55;;;10.00;68.90;;;5.08;100.00;94690.97;4989429;28;20037;-51
2024/03/01 07:03:43;;;;;;;162.02;34.75;;;10.00;68.90;;;5.09;100.00;94684.66;4989717;28;20021;-50
2024/03/01 07:06:09;;;;;;;116.95;32.28;;;9.90;68.90;;;5.07;100.00;94689.38;4988129;28;20018;-49
2024/03/01 07:08:34;;;;;;;134.20;30.42;;;9.90;68.90;;;5.07;100.00;94689.38;4988853;28;20084;-49
2024/03/01 07:11:03;;;;;;;106.97;29.48;;;10.00;68.90;;;5.09;100.00;94689.91;4988791;28;20105;-49
2024/03/01 07:13:29;;;;;;;103.57;29.33;;;10.00;69.00;;;5.12;100.00;94683.34;4992371;28;20025;-49
2024/03/01 07:15:55;;;;;;;103.60;30.38;;;10.00;68.90;;;5.12;100.00;94689.41;4993360;28;20085;-49
2024/03/01 07:18:21;;;;;;;82.82;23.90;;;10.00;68.90;;;5.09;100.00;94688.06;4974623;28;20123;-48
2024/03/01 07:20:47;;;;;;;87.30;23.65;;;10.10;69.00;;;5.13;100.00;94692.84;4993227;28;20232;-49
2024/03/01 07:23:13;;;;;;;82.90;24.45;;;10.00;68.90;;;5.16;100.00;94692.34;4991683;28;20408;-49
2024/03/01 07:25:38;;;;;;;85.35;23.77;;;10.10;69.00;;;5.17;100.00;94705.31;4993045;28;20136;-50
2024/03/01 07:28:05;;;;;;;72.25;22.90;;;10.10;69.00;;;5.10;100.00;94697.56;4992531;28;20025;-52
2024/03/01 07:30:31;;;;;;;73.60;21.20;;;10.10;69.00;;;5.17;100.00;94692.13;4992007;28;20104;-51
2024/03/01 07:32:56;;;;;;;72.82;21.75;;;10.10;69.00;;;5.19;100.00;94694.50;4975630;28;20468;-52
2024/03/01 07:35:22;;;;;;;75.85;22.13;;;10.10;69.00;;;5.22;100.00;94692.13;4992687;28;20017;-52
2024/03/01 07:37:48;;;;;;;69.80;21.02;;;10.20;69.00;;;5.25;100.00;94689.00;4992279;28;20037;-49
2024/03/01 07:40:14;;;;;;;58.50;19.25;;;10.20;69.10;;;5.26;100.00;94692.41;4991070;28;20030;-52
2024/03/01 07:42:40;;;;;;;61.60;19.80;;;10.20;69.00;;;5.28;100.00;94692.97;4992684;28;20459;-51
2024/03/01 07:45:07;;;;;;;58.70;19.55;;;10.30;69.10;;;5.29;100.00;94692.72;4975902;28;20053;-50
2024/03/01 07:47:33;;;;;;;54.70;18.83;;;10.30;69.10;;;5.27;100.00;94688.75;4991602;28;20506;-53
2024/03/01 07:49:59;;;;;;;57.70;18.65;;;10.30;69.10;;;5.29;100.00;94691.91;4992657;28;20075;-51
2024/03/01 07:52:29;;;;;;;55.90;18.52;;;10.30;69.10;;;5.30;100.00;94690.88;4991713;28;20037;-51
2024/03/01 07:54:56;;;;;;;49.55;16.98;;;10.30;69.90;;;5.32;100.00;94689.56;4974913;28;20113;-53
2024/03/01 07:57:22;;;;;;;54.42;18.48;;;10.30;69.10;;;5.31;100.00;94692.47;4992522;28;20026;-51
2024/03/01 07:59:49;;;;;;;49.40;16.27;;;10.30;69.20;;;5.33;100.00;94696.47;4991321;28;20535;-51
2024/03/01 08:02:15;;;;;;;47.13;16.67;;;10.40;69.20;;;5.34;100.00;94698.03;4992469;28;20582;-50
2024/03/01 08:04:41;;;;;;;47.90;16.45;;;10.40;69.20;;;5.36;100.00;94687.25;4991955;28;20034;-51
2024/03/01 08:07:08;;;;;;;49.85;16.52;;;10.40;69.90;;;5.39;100.00;94688.56;4991771;28;20061;-53
2024/03/01 08:09:40;;;;;;;49.70;16.90;;;10.50;69.20;;;5.43;100.00;94689.66;4991638;28;20034;-49
2024/03/01 08:12:13;;;;;;;40.55;15.73;;;10.50;70.00;;;5.45;100.00;94688.38;4991541;28;20396;-52
2024/03/01 08:14:41;;;;;;;45.92;15.82;;;10.60;69.20;;;5.47;100.00;94691.53;4992397;28;20380;-49
2024/03/01 08:17:08;;;;;;;41.33;16.13;;;10.60;69.00;;;5.53;100.00;94692.38;4991448;28;20032;-50
2024/03/01 08:19:41;;;;;;;43.38;16.73;;;10.70;69.00;;;5.56;100.00;94694.50;4991455;28;20033;-49
2024/03/01 08:22:21;;;;;;;43.88;15.50;;;10.70;69.00;;;5.60;100.00;94694.78;4991831;28;20064;-51
2024/03/01 08:24:52;;;;;;;43.67;15.23;;;10.80;69.10;;;5.62;100.00;94696.13;4987737;28;20372;-54
2024/03/01 08:27:25;;;;;;;41.13;15.48;;;10.80;68.90;;;5.65;100.00;94689.53;4974980;28;20455;-50
2024/03/01 08:29:52;;;;;;;42.33;16.00;;;10.80;68.90;;;5.69;100.00;94693.25;4976812;28;20035;-51
2024/03/01 08:32:38;;;;;;;39.25;15.82;;;10.90;68.80;;;5.77;100.00;94693.56;4991771;28;20064;-50
2024/03/01 08:35:04;;;;;;;42.58;15.82;;;11.00;69.00;;;5.87;100.00;94684.13;4990849;28;20026;-51
2024/03/01 08:37:34;;;;;;;36.83;15.63;;;11.10;68.90;;;5.91;100.00;94688.63;4991524;28;20029;-55
2024/03/01 08:40:00;;;;;;;33.80;14.63;;;11.20;68.90;;;5.92;100.00;94684.13;4990922;28;20029;-51
2024/03/01 08:42:35;;;;;;;40.90;15.60;;;11.20;68.70;;;5.99;100.00;94682.09;4990726;28;20030;-49
2024/03/01 08:45:03;;;;;;;36.72;16.05;;;11.20;68.70;;;6.03;100.00;94688.44;4991810;28;20036;-54
2024/03/01 08:47:50;;;;;;;37.88;15.32;;;11.30;68.60;;;5.96;100.00;94685.25;4973216;28;20492;-53
2024/03/01 08:50:25;;;;;;;32.92;13.50;;;11.40;69.40;;;6.01;100.00;94688.69;4974979;28;20171;-52
2024/03/01 08:52:52;;;;;;;30.80;13.82;;;11.40;68.50;;;6.11;100.00;94687.16;4990640;28;20428;-52
2024/03/01 08:55:18;;;;;;;34.05;14.95;;;11.40;68.40;;;6.11;100.00;94690.63;4973957;28;20516;-51
2024/03/01 08:57:50;;;;;;;29.50;13.80;;;11.40;68.30;;;6.13;100.00;94685.84;4990839;28;20196;-54
2024/03/01 09:00:43;;;;;;;28.55;13.02;;;11.40;68.40;;;6.14;100.00;94684.00;4990358;28;20542;-50
2024/03/01 09:03:20;;;;;;;28.38;12.57;;;11.50;68.40;;;6.21;100.00;94688.00;4973155;28;20033;-57
2024/03/01 09:05:46;;;;;;;25.45;12.02;;;11.50;68.30;;;6.08;100.00;94690.31;4990264;28;20022;-51
2024/03/01 09:08:48;;;;;;;28.73;11.43;;;11.50;68.10;;;6.19;100.00;94690.09;4990340;28;20075;-50
2024/03/01 09:11:19;;;;;;;22.63;11.77;;;11.50;68.00;;;6.24;100.00;94684.84;4949016;28;20053;-50
2024/03/01 09:13:46;;;;;;;24.45;11.45;;;11.50;68.00;;;6.23;100.00;94683.25;4984255;28;20038;-52
2024/03/01 09:16:19;;;;;;;21.83;11.30;;;11.60;68.10;;;6.26;100.00;94680.06;4990139;28;20021;-55
2024/03/01 09:18:52;;;;;;;19.90;10.35;;;11.60;68.00;;;6.32;100.00;94693.31;4988896;28;20037;-53
2024/03/01 09:21:36;;;;;;;;;;;11.60;67.90;;;6.25;100.00;94685.63;4991214;28;20021;-52
2024/03/01 09:24:04;;;;;;;17.50;9.02;;;11.60;67.70;;;6.18;100.00;94690.38;4987585;28;19928;-55
2024/03/01 09:26:30;;;;;;;19.35;9.65;;;11.60;67.70;;;6.25;100.00;94688.28;4989598;28;20029;-49
2024/03/01 09:29:04;;;;;;;18.00;8.95;;;11.50;67.60;;;6.17;100.00;94689.59;4986385;28;20027;-51
2024/03/01 09:31:32;;;;;;;15.88;7.93;;;11.50;67.60;;;6.22;100.00;94679.00;4985529;28;20048;-50
2024/03/01 09:34:05;;;;;;;16.98;8.90;;;11.50;67.60;;;6.24;100.00;94679.56;4983800;28;20030;-51
2024/03/01 09:36:32;;;;;;;14.88;8.25;;;11.50;67.60;;;6.23;100.00;94687.72;4968800;28;20044;-56
2024/03/01 09:39:04;;;;;;;15.00;7.93;;;11.40;67.60;;;6.21;100.00;94685.38;4969006;28;20395;-50
2024/03/01 09:42:28;;;;;;;14.90;8.32;;;11.40;67.60;;;6.24;100.00;94686.69;4985193;28;20361;-49
2024/03/01 09:45:19;;;;;;;15.50;7.50;;;11.40;67.60;;;6.26;100.00;94685.38;4985768;28;20182;-53
2024/03/01 09:48:33;;;;;;;15.57;6.93;;;11.40;67.70;;;6.28;100.00;94690.41;4984955;28;20121;-52
2024/03/01 09:51:42;;;;;;;10.95;7.03;;;11.50;67.70;;;6.23;100.00;94682.44;4987493;28;20018;-52
2024/03/01 09:54:49;;;;;;;12.43;6.43;;;11.50;67.60;;;6.25;100.00;94686.44;4984534;28;20164;-55
2024/03/01 09:58:07;;;;;;;14.82;5.85;;;11.50;67.60;;;6.31;100.00;94684.59;4988073;28;20114;-54
2024/03/01 10:01:01;;;;;;;9.27;5.28;;;11.60;67.50;;;6.33;100.00;94681.69;4983079;28;20089;-51
2024/03/01 10:04:09;;;;;;;8.90;4.93;;;11.60;67.30;;;6.41;100.00;94686.47;4989790;28;20094;-54
2024/03/01 10:07:30;;;;;;;9.35;5.43;;;11.70;67.30;;;6.44;100.00;94689.41;4988751;28;20021;-56
2024/03/01 10:10:53;;;;;;;8.02;4.82;;;11.70;67.30;;;6.45;100.00;94685.69;4895398;29;20525;-55
2024/03/01 10:14:09;;;;;;;8.40;4.93;;;11.70;67.20;;;6.37;100.00;94693.34;4911234;29;20039;-50
2024/03/01 10:17:17;;;;;;;8.60;4.32;;;11.70;67.10;;;6.39;100.00;94684.13;4954241;28;20470;-54
2024/03/01 10:20:48;;;;;;;6.80;4.07;;;11.70;67.00;;;6.36;100.00;94681.16;4988516;28;20431;-51